Hlavní strana
METAR-TAF:

METAR-TAF

Letiště :

Nuakšott, Mauritánie

zeměpisná šířka: 18-18-36N, zeměpisná délka: 015-58-11W, výška: 3 m

Aktuální stav počasí

Zpráva byla vytvořena před 23 minutami, v 05:00 UTC
Severní vítr 11 kt
Teplota 18°C
Vlhkost vzduchu 68%
Tlak 1013 hPa
Viditelnost: 8000 m

METAR: GQNO 160500Z 36011KT 8000 NSC 18/12 Q1013 NOSIG

Čas: 05:23 (05:23 UTC)

Předpověď počasí

Zpráva byla vytvořena před 6 hodinami a 23 minutami, v 23:00 UTC
Předpověď platná od 16 v 00 UTC do 17 v 06 UTC
Severoseverozápadní vítr 10 kt
Viditelnost: 8000 m
Pravděpodobnost 40% :
Dočasný
od 16 v 05 UTC do 16 v 08 UTC
Viditelnost: 4000 m
kouřmo
Dočasný
od 16 v 09 UTC do 16 v 14 UTC
Severovýchodní vítr 8 kt

TAF: GQNO 152300Z 1600/1706 34010KT 8000 NSC PROB40 TEMPO 1605/1608 4000 BR TEMPO 1609/1614 04008KT

Stav a předpovědi počasí z více než 4 000 letišť (zprávy METAR a TAF).

Červené a žluté tečky na mapě představují dostupné meteorologické stanice.

Když kurzor umístíte na tečku, zobrazí se název stanice.

Pak kliknutím zobrazíte stav a předpověď počasí.

Chcete-li změnit mapu, kliknutím na zelené tlačítko se znaménkem +mapu přiblížíte, kliknutím na zelené tlačítko se znaménkem – mapu oddálíte a kliknutím na zelené šipky přejdete na sousední mapy.


METAR-TAF: